Terminal Aerodrome Forecast
Issued by NWS

Home | Current Version | Previous Version | Text Only | Print | Product List | Glossary On
Versions: 1 2 3 4 5 6 7 8 9 10 11 12 13 14 15
011
FTUS45 KRIW 241726
TAFJAC
TAF
KJAC 241726Z 2418/2518 35007KT P6SM VCSH FEW005 BKN025
     FM241900 36007KT P6SM BKN040
     FM250200 VRB05KT P6SM SCT050
     FM250600 01005KT P6SM VCFG FEW005
     FM251600 VRB06KT P6SM FEW100
      AMD LTD TO CLD VIS AND WIND=

USA.gov is the U.S. government's official web portal to all federal, state and local government web resources and services.